createdAt,value
2018-04-22T00:01:18.015Z,8.23
2018-04-22T00:03:46.436Z,7.80
2018-04-22T00:06:14.815Z,7.43
2018-04-22T00:08:43.223Z,7.93
2018-04-22T00:11:11.598Z,7.83
2018-04-22T00:13:39.969Z,8.07
2018-04-22T00:16:08.344Z,8.17
2018-04-22T00:18:36.718Z,8.30
2018-04-22T00:21:05.152Z,7.60
2018-04-22T00:23:33.523Z,8.40
2018-04-22T00:26:01.886Z,7.97
2018-04-22T00:28:30.254Z,8.67
2018-04-22T00:30:58.678Z,8.17
2018-04-22T00:33:27.054Z,7.73
2018-04-22T00:35:55.434Z,8.50
2018-04-22T00:38:23.823Z,8.20
2018-04-22T00:40:52.196Z,8.97
2018-04-22T00:43:20.571Z,9.37
2018-04-22T00:45:48.943Z,8.40
2018-04-22T00:48:17.318Z,8.70
2018-04-22T00:50:45.508Z,8.97
2018-04-22T00:53:13.654Z,8.00
2018-04-22T00:55:42.026Z,8.77
2018-04-22T00:58:10.390Z,8.30
2018-04-22T01:00:38.758Z,8.80
2018-04-22T01:03:07.127Z,8.97
2018-04-22T01:05:35.503Z,8.97
2018-04-22T01:08:03.899Z,8.40
2018-04-22T01:10:32.296Z,8.87
2018-04-22T01:13:00.719Z,8.07
2018-04-22T01:15:29.294Z,8.90
2018-04-22T01:17:57.439Z,8.83
2018-04-22T01:20:25.810Z,8.30
2018-04-22T01:22:54.988Z,8.13
2018-04-22T01:25:23.408Z,7.93
2018-04-22T01:27:51.790Z,8.63
2018-04-22T01:30:20.233Z,8.53
2018-04-22T01:32:48.614Z,8.00
2018-04-22T01:35:16.982Z,8.77
2018-04-22T01:37:45.418Z,9.17
2018-04-22T01:40:13.842Z,9.50
2018-04-22T01:42:42.235Z,8.07
2018-04-22T01:45:10.595Z,8.43
2018-04-22T01:47:39.012Z,8.37
2018-04-22T01:50:07.391Z,9.33
2018-04-22T01:52:35.772Z,9.40
2018-04-22T01:55:04.157Z,8.73
2018-04-22T01:57:32.535Z,10.00
2018-04-22T02:00:00.974Z,9.30
2018-04-22T02:02:29.365Z,9.63
2018-04-22T02:04:57.793Z,9.13
2018-04-22T02:07:26.184Z,9.20
2018-04-22T02:09:54.559Z,8.73
2018-04-22T02:12:22.940Z,9.40
2018-04-22T02:14:51.321Z,8.67
2018-04-22T02:17:19.692Z,8.80
2018-04-22T02:19:48.087Z,8.40
2018-04-22T02:22:16.470Z,8.67
2018-04-22T02:24:44.844Z,8.40
2018-04-22T02:27:13.276Z,8.00
2018-04-22T02:29:41.847Z,8.30
2018-04-22T02:32:10.291Z,8.23
2018-04-22T02:34:38.670Z,8.30
2018-04-22T02:37:07.047Z,8.10
2018-04-22T02:39:35.413Z,8.73
2018-04-22T02:42:03.806Z,8.30
2018-04-22T02:44:32.184Z,9.17
2018-04-22T02:47:00.562Z,8.37
2018-04-22T02:49:28.960Z,8.27
2018-04-22T02:51:57.099Z,8.07
2018-04-22T02:54:25.534Z,8.63
2018-04-22T02:56:53.913Z,8.07
2018-04-22T02:59:22.275Z,8.73
2018-04-22T03:01:51.450Z,8.70
2018-04-22T03:04:20.307Z,8.83
2018-04-22T03:06:48.827Z,8.97
2018-04-22T03:09:17.208Z,9.00
2018-04-22T03:11:45.592Z,8.10
2018-04-22T03:14:13.958Z,8.70
2018-04-22T03:16:42.424Z,8.27
2018-04-22T03:19:10.803Z,8.00
2018-04-22T03:21:39.170Z,8.40
2018-04-22T03:24:07.549Z,8.10
2018-04-22T03:26:35.910Z,8.50
2018-04-22T03:29:04.282Z,8.77
2018-04-22T03:31:32.663Z,9.20
2018-04-22T03:34:01.031Z,8.47
2018-04-22T03:36:29.443Z,8.90
2018-04-22T03:38:57.861Z,8.40
2018-04-22T03:41:26.252Z,10.40
2018-04-22T03:43:54.636Z,9.33
2018-04-22T03:46:23.063Z,7.50
2018-04-22T03:48:51.435Z,8.17
2018-04-22T03:51:19.817Z,7.67
2018-04-22T03:53:48.187Z,7.87
2018-04-22T03:56:16.568Z,8.03
2018-04-22T03:58:44.956Z,8.90
2018-04-22T04:01:13.386Z,8.10
2018-04-22T04:03:41.800Z,7.33
2018-04-22T04:06:10.162Z,7.70
2018-04-22T04:08:38.540Z,9.07
2018-04-22T04:11:06.955Z,9.40
2018-04-22T04:13:35.333Z,9.17
2018-04-22T04:16:03.801Z,9.67
2018-04-22T04:21:49.930Z,8.73
2018-04-22T04:24:38.496Z,8.47
2018-04-22T04:27:18.082Z,7.83
2018-04-22T04:29:46.462Z,8.00
2018-04-22T04:32:14.879Z,7.40
2018-04-22T04:34:43.023Z,7.87
2018-04-22T04:37:11.395Z,7.40
2018-04-22T04:39:39.768Z,7.90
2018-04-22T04:42:08.156Z,8.13
2018-04-22T04:44:36.527Z,7.50
2018-04-22T04:47:04.894Z,7.93
2018-04-22T04:49:33.278Z,8.03
2018-04-22T04:52:01.716Z,8.50
2018-04-22T04:54:29.867Z,8.40
2018-04-22T04:56:58.226Z,8.30
2018-04-22T04:59:26.379Z,8.70
2018-04-22T05:01:54.753Z,8.23
2018-04-22T05:04:23.143Z,8.47
2018-04-22T05:06:51.577Z,9.27
2018-04-22T05:09:19.959Z,9.20
2018-04-22T05:11:48.334Z,9.47
2018-04-22T05:14:16.706Z,9.53
2018-04-22T05:16:45.137Z,9.83
2018-04-22T05:19:13.508Z,10.00
2018-04-22T05:21:41.937Z,10.40
2018-04-22T05:24:10.323Z,10.50
2018-04-22T05:26:38.704Z,10.60
2018-04-22T05:29:07.079Z,10.27
2018-04-22T05:31:35.510Z,10.13
2018-04-22T05:34:03.899Z,10.33
2018-04-22T05:36:32.366Z,9.13
2018-04-22T05:39:00.948Z,10.00
2018-04-22T05:41:29.328Z,9.60
2018-04-22T05:43:57.710Z,10.60
2018-04-22T05:46:26.094Z,10.63
2018-04-22T05:48:54.479Z,10.47
2018-04-22T05:51:23.591Z,11.00
2018-04-22T05:53:51.991Z,11.43
2018-04-22T05:56:20.418Z,10.87
2018-04-22T05:58:48.803Z,11.00
2018-04-22T06:01:17.233Z,10.70
2018-04-22T06:03:45.608Z,10.53
2018-04-22T06:06:13.986Z,11.17
2018-04-22T06:08:42.371Z,10.40
2018-04-22T06:11:10.756Z,10.90
2018-04-22T06:13:39.138Z,10.43
2018-04-22T06:16:07.303Z,10.50
2018-04-22T06:18:35.686Z,10.60
2018-04-22T06:21:04.063Z,10.27
2018-04-22T06:23:32.446Z,10.33
2018-04-22T06:26:00.899Z,10.10
2018-04-22T06:28:29.287Z,9.80
2018-04-22T06:30:57.694Z,9.77
2018-04-22T06:33:26.071Z,9.83
2018-04-22T06:35:54.519Z,10.03
2018-04-22T06:38:22.892Z,9.80
2018-04-22T06:40:51.271Z,10.07
2018-04-22T06:43:19.705Z,8.67
2018-04-22T06:45:48.087Z,9.47
2018-04-22T06:48:16.461Z,9.50
2018-04-22T06:50:44.837Z,9.43
2018-04-22T06:53:12.977Z,9.77
2018-04-22T06:55:41.346Z,9.10
2018-04-22T06:58:09.730Z,8.70
2018-04-22T07:00:38.166Z,8.57
2018-04-22T07:03:06.530Z,10.13
2018-04-22T07:05:34.899Z,9.53
2018-04-22T07:08:03.414Z,11.00
2018-04-22T07:10:31.793Z,14.03
2018-04-22T07:13:00.166Z,13.60
2018-04-22T07:15:28.534Z,9.90
2018-04-22T07:18:00.274Z,9.80
2018-04-22T07:20:28.714Z,10.73
2018-04-22T07:22:57.101Z,9.90
2018-04-22T07:25:25.534Z,9.20
2018-04-22T07:27:53.953Z,8.50
2018-04-22T07:30:22.408Z,9.20
2018-04-22T07:32:50.769Z,8.63
2018-04-22T07:35:19.186Z,8.70
2018-04-22T07:37:47.570Z,8.97
2018-04-22T07:40:15.940Z,8.43
2018-04-22T07:42:44.313Z,8.23
2018-04-22T07:45:12.687Z,7.93
2018-04-22T07:47:41.058Z,7.97
2018-04-22T07:50:09.443Z,7.57
2018-04-22T07:52:37.816Z,7.90
2018-04-22T07:55:06.195Z,8.10
2018-04-22T07:57:34.566Z,7.80
2018-04-22T08:00:03.794Z,7.60
2018-04-22T08:02:32.171Z,7.30
2018-04-22T08:05:00.560Z,7.20
2018-04-22T08:07:28.934Z,6.73
2018-04-22T08:09:57.323Z,6.37
2018-04-22T08:12:25.746Z,5.87
2018-04-22T08:14:53.890Z,7.00
2018-04-22T08:17:22.270Z,6.10
2018-04-22T08:19:50.657Z,5.53
2018-04-22T08:22:19.031Z,5.93
2018-04-22T08:24:47.455Z,5.27
2018-04-22T08:27:15.875Z,4.93
2018-04-22T08:29:44.250Z,5.77
2018-04-22T08:32:12.704Z,4.80
2018-04-22T08:34:40.880Z,4.27
2018-04-22T08:37:09.258Z,3.80
2018-04-22T08:39:37.670Z,4.03
2018-04-22T08:42:06.104Z,4.10
2018-04-22T08:44:34.467Z,3.50
2018-04-22T08:47:02.846Z,3.40
2018-04-22T08:49:31.224Z,3.83
2018-04-22T08:51:59.613Z,4.07
2018-04-22T08:54:28.000Z,3.93
2018-04-22T08:56:56.398Z,3.90
2018-04-22T08:59:24.790Z,3.73
2018-04-22T09:01:53.227Z,3.30
2018-04-22T09:04:22.326Z,3.40
2018-04-22T09:06:50.692Z,2.73
2018-04-22T09:09:19.080Z,3.40
2018-04-22T09:11:47.456Z,3.10
2018-04-22T09:14:15.869Z,3.70
2018-04-22T09:16:44.252Z,3.23
2018-04-22T09:19:12.618Z,3.30
2018-04-22T09:21:40.978Z,2.90
2018-04-22T09:24:09.357Z,3.10
2018-04-22T09:26:37.748Z,3.03
2018-04-22T09:29:06.130Z,3.03
2018-04-22T09:31:34.601Z,3.00
2018-04-22T09:34:03.020Z,3.43
2018-04-22T09:36:32.203Z,3.47
2018-04-22T09:39:00.574Z,3.33
2018-04-22T09:41:28.954Z,3.20
2018-04-22T09:43:57.378Z,2.93
2018-04-22T09:46:25.747Z,2.60
2018-04-22T09:48:54.171Z,2.67
2018-04-22T09:51:22.586Z,2.27
2018-04-22T09:53:50.953Z,3.37
2018-04-22T09:56:19.326Z,2.20
2018-04-22T09:58:47.690Z,2.53
2018-04-22T10:01:19.840Z,2.33
2018-04-22T10:03:47.984Z,2.60
2018-04-22T10:06:16.355Z,2.57
2018-04-22T10:08:44.735Z,3.00
2018-04-22T10:11:13.103Z,2.60
2018-04-22T10:13:41.502Z,2.47
2018-04-22T10:16:09.908Z,2.23
2018-04-22T10:18:38.285Z,2.37
2018-04-22T10:21:06.659Z,2.70
2018-04-22T10:23:35.059Z,1.90
2018-04-22T10:26:03.482Z,2.40
2018-04-22T10:28:31.886Z,2.30
2018-04-22T10:31:00.075Z,2.40
2018-04-22T10:33:28.453Z,2.40
2018-04-22T10:35:56.830Z,2.73
2018-04-22T10:38:25.247Z,3.10
2018-04-22T10:40:53.659Z,2.70
2018-04-22T10:43:22.071Z,2.50
2018-04-22T10:45:50.461Z,2.40
2018-04-22T10:48:18.850Z,2.37
2018-04-22T10:50:47.239Z,2.50
2018-04-22T10:53:15.630Z,2.60
2018-04-22T10:55:44.012Z,2.53
2018-04-22T10:58:12.440Z,2.60
2018-04-22T11:00:40.878Z,2.73
2018-04-22T11:03:09.254Z,2.30
2018-04-22T11:05:37.634Z,2.80
2018-04-22T11:08:06.074Z,2.80
2018-04-22T11:10:34.476Z,2.17
2018-04-22T11:13:02.881Z,2.57
2018-04-22T11:15:32.238Z,2.60
2018-04-22T11:18:00.609Z,2.90
2018-04-22T11:20:28.989Z,2.67
2018-04-22T11:22:57.372Z,2.50
2018-04-22T11:25:25.748Z,2.70
2018-04-22T11:27:54.126Z,2.43
2018-04-22T11:30:23.842Z,2.53
2018-04-22T11:32:52.199Z,2.60
2018-04-22T11:35:20.583Z,2.50
2018-04-22T11:37:48.965Z,2.73
2018-04-22T11:40:17.392Z,2.60
2018-04-22T11:42:45.768Z,2.60
2018-04-22T11:45:14.159Z,2.77
2018-04-22T11:47:42.527Z,2.50
2018-04-22T11:50:10.898Z,2.30
2018-04-22T11:52:39.262Z,2.90
2018-04-22T11:55:07.636Z,2.60
2018-04-22T11:57:36.052Z,2.77
2018-04-22T12:00:05.640Z,2.47
2018-04-22T12:02:34.004Z,2.70
2018-04-22T12:05:02.402Z,2.57
2018-04-22T12:07:30.766Z,2.90
2018-04-22T12:09:59.208Z,2.70
2018-04-22T12:12:27.588Z,2.57
2018-04-22T12:14:55.971Z,2.87
2018-04-22T12:17:24.367Z,2.60
2018-04-22T12:19:52.751Z,2.30
2018-04-22T12:22:21.165Z,2.70
2018-04-22T12:24:49.539Z,2.50
2018-04-22T12:27:18.830Z,2.50
2018-04-22T12:29:47.244Z,2.77
2018-04-22T12:32:15.612Z,2.50
2018-04-22T12:34:43.990Z,2.37
2018-04-22T12:37:12.350Z,2.60
2018-04-22T12:39:40.710Z,2.43
2018-04-22T12:42:09.120Z,2.60
2018-04-22T12:44:37.504Z,2.50
2018-04-22T12:47:05.928Z,2.70
2018-04-22T12:49:34.301Z,2.70
2018-04-22T12:52:02.667Z,2.90
2018-04-22T12:54:31.035Z,2.90
2018-04-22T12:56:59.407Z,2.50
2018-04-22T12:59:29.489Z,2.70
2018-04-22T13:01:57.864Z,2.43
2018-04-22T13:04:26.268Z,2.47
2018-04-22T13:06:54.676Z,2.40
2018-04-22T13:09:23.290Z,2.77
2018-04-22T13:11:52.884Z,2.43
2018-04-22T13:14:21.336Z,2.37
2018-04-22T13:16:49.762Z,3.17
2018-04-22T13:19:18.170Z,2.67
2018-04-22T13:21:46.547Z,2.60
2018-04-22T13:24:14.927Z,2.80
2018-04-22T13:26:43.296Z,2.83
2018-04-22T13:29:11.872Z,2.60
2018-04-22T13:31:40.316Z,2.63
2018-04-22T13:34:08.748Z,2.60
2018-04-22T13:36:37.124Z,2.87
2018-04-22T13:39:05.697Z,2.70
2018-04-22T13:41:34.111Z,2.57
2018-04-22T13:44:02.548Z,2.87
2018-04-22T13:46:30.917Z,3.10
2018-04-22T13:48:59.300Z,3.03
2018-04-22T13:51:27.671Z,2.60
2018-04-22T13:53:56.093Z,2.90
2018-04-22T13:56:24.460Z,2.60
2018-04-22T13:58:52.854Z,3.07
2018-04-22T14:01:21.221Z,2.87
2018-04-22T14:03:49.602Z,2.97
2018-04-22T14:06:17.815Z,2.90
2018-04-22T14:08:47.013Z,2.93
2018-04-22T14:11:15.463Z,2.97
2018-04-22T14:13:43.891Z,2.90
2018-04-22T14:16:12.183Z,2.70
2018-04-22T14:18:40.759Z,2.90
2018-04-22T14:21:09.187Z,3.10
2018-04-22T14:23:37.558Z,2.30
2018-04-22T14:26:05.995Z,2.60
2018-04-22T14:28:34.418Z,2.90
2018-04-22T14:31:02.817Z,2.87
2018-04-22T14:33:31.194Z,2.50
2018-04-22T14:35:59.611Z,2.70
2018-04-22T14:38:27.980Z,3.07
2018-04-22T14:40:56.401Z,2.77
2018-04-22T14:43:24.778Z,2.60
2018-04-22T14:46:04.408Z,2.60
2018-04-22T14:48:32.348Z,2.93
2018-04-22T14:51:00.763Z,2.97
2018-04-22T14:53:29.137Z,2.53
2018-04-22T14:55:57.525Z,2.70
2018-04-22T14:58:25.898Z,2.77
2018-04-22T15:00:54.319Z,3.10
2018-04-22T15:03:22.736Z,2.37
2018-04-22T15:05:51.104Z,2.30
2018-04-22T15:08:19.532Z,2.80
2018-04-22T15:10:47.958Z,2.53
2018-04-22T15:13:16.323Z,2.80
2018-04-22T15:15:44.701Z,2.70
2018-04-22T15:18:13.127Z,2.40
2018-04-22T15:20:41.505Z,2.10
2018-04-22T15:23:09.863Z,2.40
2018-04-22T15:25:38.286Z,2.53
2018-04-22T15:28:06.712Z,2.67
2018-04-22T15:30:35.131Z,2.70
2018-04-22T15:33:03.506Z,2.70
2018-04-22T15:35:31.968Z,2.70
2018-04-22T15:38:00.325Z,2.80
2018-04-22T15:40:28.725Z,2.73
2018-04-22T15:42:57.151Z,2.47
2018-04-22T15:45:25.692Z,2.80
2018-04-22T15:47:54.108Z,2.80
2018-04-22T15:50:22.511Z,2.70
2018-04-22T15:52:50.911Z,2.50
2018-04-22T15:55:19.319Z,3.23
2018-04-22T15:57:47.692Z,2.77
2018-04-22T16:00:16.098Z,2.60
2018-04-22T16:02:45.224Z,2.63
2018-04-22T16:05:13.675Z,2.90
2018-04-22T16:07:42.086Z,2.90
2018-04-22T16:10:11.231Z,2.77
2018-04-22T16:12:39.564Z,2.80
2018-04-22T16:15:07.981Z,2.70
2018-04-22T16:17:36.360Z,2.43
2018-04-22T16:20:04.808Z,2.63
2018-04-22T16:22:33.235Z,3.00
2018-04-22T16:25:01.681Z,2.90
2018-04-22T16:27:30.083Z,2.43
2018-04-22T16:29:58.500Z,2.57
2018-04-22T16:32:26.871Z,3.17
2018-04-22T16:34:55.241Z,2.90
2018-04-22T16:37:23.619Z,3.17
2018-04-22T16:39:52.015Z,3.30
2018-04-22T16:42:20.431Z,2.80
2018-04-22T16:44:48.814Z,3.33
2018-04-22T16:47:17.199Z,3.10
2018-04-22T16:49:45.577Z,3.40
2018-04-22T16:52:13.946Z,3.83
2018-04-22T16:54:42.317Z,3.77
2018-04-22T16:57:10.789Z,3.70
2018-04-22T16:59:39.224Z,3.20
2018-04-22T17:02:07.619Z,3.53
2018-04-22T17:04:35.989Z,3.97
2018-04-22T17:07:04.383Z,3.80
2018-04-22T17:09:32.795Z,3.53
2018-04-22T17:12:01.205Z,3.97
2018-04-22T17:14:29.579Z,3.83
2018-04-22T17:16:58.907Z,4.17
2018-04-22T17:19:27.279Z,3.73
2018-04-22T17:21:55.651Z,3.90
2018-04-22T17:24:24.292Z,4.80
2018-04-22T17:26:52.712Z,4.80
2018-04-22T17:29:21.137Z,4.23
2018-04-22T17:31:49.593Z,3.63
2018-04-22T17:34:18.147Z,3.93
2018-04-22T17:36:46.527Z,3.73
2018-04-22T17:39:14.942Z,3.97
2018-04-22T17:41:43.368Z,4.27
2018-04-22T17:44:11.984Z,3.37
2018-04-22T17:46:40.418Z,4.00
2018-04-22T17:49:08.869Z,3.60
2018-04-22T17:51:37.041Z,3.90
2018-04-22T17:54:05.393Z,3.97
2018-04-22T17:56:33.802Z,3.80
2018-04-22T17:59:02.194Z,3.57
2018-04-22T18:01:30.574Z,4.80
2018-04-22T18:03:59.033Z,11.10
2018-04-22T18:06:27.411Z,6.47
2018-04-22T18:08:56.689Z,5.67
2018-04-22T18:11:25.190Z,4.50
2018-04-22T18:13:53.614Z,12.83
2018-04-22T18:16:22.003Z,3.80
2018-04-22T18:18:50.202Z,5.93
2018-04-22T18:21:18.590Z,4.27
2018-04-22T18:23:46.983Z,3.80
2018-04-22T18:26:15.759Z,4.30
2018-04-22T18:28:44.152Z,4.57
2018-04-22T18:31:12.529Z,4.53
2018-04-22T18:33:40.917Z,3.57
2018-04-22T18:36:09.412Z,3.67
2018-04-22T18:38:38.652Z,4.10
2018-04-22T18:41:07.216Z,4.20
2018-04-22T18:43:35.583Z,4.40
2018-04-22T18:46:08.038Z,3.93
2018-04-22T18:48:37.319Z,5.57
2018-04-22T18:51:05.750Z,4.63
2018-04-22T18:53:34.881Z,4.03
2018-04-22T18:56:03.861Z,3.80
2018-04-22T18:58:32.265Z,6.57
2018-04-22T19:01:03.869Z,4.47
2018-04-22T19:03:33.727Z,4.80
2018-04-22T19:06:02.860Z,5.57
2018-04-22T19:08:31.228Z,5.03
2018-04-22T19:11:06.228Z,4.33
2018-04-22T19:13:34.725Z,4.20
2018-04-22T19:16:04.826Z,4.90
2018-04-22T19:18:35.284Z,4.50
2018-04-22T19:21:09.393Z,3.40
2018-04-22T19:23:37.780Z,3.57
2018-04-22T19:26:06.160Z,4.93
2018-04-22T19:28:34.562Z,3.40
2018-04-22T19:31:02.951Z,2.90
2018-04-22T19:33:31.360Z,3.27
2018-04-22T19:35:59.786Z,3.33
2018-04-22T19:38:28.150Z,3.40
2018-04-22T19:40:58.789Z,3.80
2018-04-22T19:43:27.174Z,3.70
2018-04-22T19:45:55.599Z,3.90
2018-04-22T19:48:23.960Z,3.23
2018-04-22T19:50:52.364Z,4.03
2018-04-22T19:53:20.779Z,3.43
2018-04-22T19:55:49.209Z,6.23
2018-04-22T19:58:17.718Z,7.97
2018-04-22T20:00:46.303Z,5.47
2018-04-22T20:03:14.698Z,5.90
2018-04-22T20:05:43.062Z,5.97
2018-04-22T20:08:11.430Z,4.80
2018-04-22T20:10:39.807Z,5.43
2018-04-22T20:13:08.299Z,4.70
2018-04-22T20:15:36.715Z,4.90
2018-04-22T20:18:05.260Z,4.57
2018-04-22T20:20:33.991Z,4.20
2018-04-22T20:23:02.472Z,5.33
2018-04-22T20:25:30.895Z,4.93
2018-04-22T20:27:59.335Z,8.70
2018-04-22T20:30:27.703Z,4.87
2018-04-22T20:32:56.166Z,8.07
2018-04-22T20:35:24.550Z,4.47
2018-04-22T20:37:53.876Z,3.50
2018-04-22T20:40:22.365Z,4.77
2018-04-22T20:42:50.785Z,5.13
2018-04-22T20:45:19.196Z,4.50
2018-04-22T20:47:47.575Z,10.23
2018-04-22T20:50:15.980Z,6.83
2018-04-22T20:52:44.367Z,3.50
2018-04-22T20:55:12.747Z,3.53
2018-04-22T20:57:41.159Z,3.73
2018-04-22T21:00:10.760Z,3.43
2018-04-22T21:02:39.194Z,3.40
2018-04-22T21:05:07.555Z,3.60
2018-04-22T21:07:35.995Z,3.10
2018-04-22T21:10:04.368Z,3.63
2018-04-22T21:12:32.734Z,3.43
2018-04-22T21:15:01.961Z,3.77
2018-04-22T21:17:30.344Z,3.07
2018-04-22T21:19:58.710Z,3.63
2018-04-22T21:22:27.079Z,2.70
2018-04-22T21:24:55.520Z,3.37
2018-04-22T21:27:23.886Z,2.73
2018-04-22T21:29:52.282Z,3.03
2018-04-22T21:32:20.685Z,3.30
2018-04-22T21:34:49.062Z,3.33
2018-04-22T21:37:17.472Z,3.13
2018-04-22T21:39:45.862Z,2.87
2018-04-22T21:42:14.279Z,3.23
2018-04-22T21:44:42.663Z,2.80
2018-04-22T21:47:11.081Z,3.73
2018-04-22T21:49:39.491Z,3.67
2018-04-22T21:52:07.871Z,4.50
2018-04-22T21:54:36.242Z,4.10
2018-04-22T21:57:04.620Z,5.60
2018-04-22T21:59:33.016Z,5.60
2018-04-22T22:02:01.387Z,6.33
2018-04-22T22:04:29.781Z,5.93
2018-04-22T22:06:58.388Z,6.47
2018-04-22T22:09:26.768Z,6.30
2018-04-22T22:11:55.204Z,6.60
2018-04-22T22:14:23.576Z,5.57
2018-04-22T22:16:51.961Z,5.93
2018-04-22T22:19:20.331Z,6.00
2018-04-22T22:21:48.715Z,6.00
2018-04-22T22:24:17.111Z,5.27
2018-04-22T22:26:45.491Z,5.90
2018-04-22T22:29:13.866Z,5.40
2018-04-22T22:31:42.551Z,5.23
2018-04-22T22:34:10.919Z,4.87
2018-04-22T22:36:39.397Z,5.20
2018-04-22T22:39:07.786Z,4.97
2018-04-22T22:41:36.157Z,5.30
2018-04-22T22:44:04.540Z,5.07
2018-04-22T22:46:32.669Z,5.80
2018-04-22T22:49:01.046Z,4.70
2018-04-22T22:51:29.436Z,8.20
2018-04-22T22:53:57.814Z,7.37
2018-04-22T22:56:26.200Z,6.37
2018-04-22T22:58:54.621Z,7.27
2018-04-22T23:01:23.000Z,7.27
2018-04-22T23:03:51.382Z,6.37
2018-04-22T23:06:19.808Z,7.03
2018-04-22T23:08:48.179Z,7.27
2018-04-22T23:11:16.316Z,7.27
2018-04-22T23:13:44.686Z,6.40
2018-04-22T23:16:13.063Z,6.17
2018-04-22T23:18:41.435Z,5.60
2018-04-22T23:21:09.810Z,6.23
2018-04-22T23:23:38.254Z,6.07
2018-04-22T23:26:06.622Z,6.23
2018-04-22T23:28:34.991Z,6.30
2018-04-22T23:31:03.367Z,6.20
2018-04-22T23:33:31.751Z,5.50
2018-04-22T23:36:00.115Z,6.60
2018-04-22T23:38:28.497Z,6.10
2018-04-22T23:40:56.932Z,5.60
2018-04-22T23:43:25.336Z,5.03
2018-04-22T23:45:53.748Z,5.07
2018-04-22T23:48:21.880Z,6.00
2018-04-22T23:50:50.246Z,6.30
2018-04-22T23:53:18.614Z,6.07
2018-04-22T23:55:46.998Z,5.17
2018-04-22T23:58:15.377Z,5.40
